Time,TemperatureF,DewpointF,PressureIn,WindDirection,WindDirectionDegrees,WindSpeedMPH,WindSpeedGustMPH,Humidity,HourlyPrecipIn,Conditions,Clouds,dailyrainin,SoftwareType,DateUTC
2013-06-18 00:01:00,64.9,47.8,29.47,SSW,203,0.0,0.0,54,0.00,,,0.00,WUHU216HW,2013-06-18 08:01:00,
2013-06-18 00:06:00,64.5,47.9,29.47,SSW,203,0.0,0.0,55,0.00,,,0.00,WUHU216HW,2013-06-18 08:06:00,
2013-06-18 00:11:00,64.0,47.4,29.47,SSW,203,0.0,0.0,55,0.00,,,0.00,WUHU216HW,2013-06-18 08:11:00,
2013-06-18 00:16:00,63.6,47.5,29.47,SSW,203,0.0,0.0,56,0.00,,,0.00,WUHU216HW,2013-06-18 08:16:00,
2013-06-18 00:21:00,63.5,47.4,29.47,SSW,203,0.0,0.0,56,0.00,,,0.00,WUHU216HW,2013-06-18 08:21:00,
2013-06-18 00:26:00,63.1,47.1,29.47,SSW,203,0.0,0.0,56,0.00,,,0.00,WUHU216HW,2013-06-18 08:26:00,
2013-06-18 00:31:00,62.7,47.2,29.47,SSW,203,0.0,0.0,57,0.00,,,0.00,WUHU216HW,2013-06-18 08:31:00,
2013-06-18 00:36:00,62.2,46.7,29.47,SSW,203,0.0,0.0,57,0.00,,,0.00,WUHU216HW,2013-06-18 08:36:00,
2013-06-18 00:41:00,61.7,46.7,29.47,SSW,203,0.0,0.0,58,0.00,,,0.00,WUHU216HW,2013-06-18 08:41:00,
2013-06-18 00:46:00,61.5,46.6,29.47,SSW,203,0.0,0.0,58,0.00,,,0.00,WUHU216HW,2013-06-18 08:46:00,
2013-06-18 00:51:00,61.1,46.2,29.47,SSW,203,0.0,0.0,58,0.00,,,0.00,WUHU216HW,2013-06-18 08:51:00,
2013-06-18 00:56:00,60.6,46.2,29.46,SSW,203,0.0,0.0,59,0.00,,,0.00,WUHU216HW,2013-06-18 08:56:00,
2013-06-18 01:01:00,60.4,46.0,29.46,SSW,203,0.0,0.0,59,0.00,,,0.00,WUHU216HW,2013-06-18 09:01:00,
2013-06-18 01:06:00,59.9,46.0,29.46,SSW,203,0.0,0.0,60,0.00,,,0.00,WUHU216HW,2013-06-18 09:06:00,
2013-06-18 01:11:00,59.7,46.2,29.46,SSW,203,0.0,0.0,61,0.00,,,0.00,WUHU216HW,2013-06-18 09:11:00,
2013-06-18 01:16:00,59.3,45.9,29.46,SSW,203,0.0,0.0,61,0.00,,,0.00,WUHU216HW,2013-06-18 09:16:00,
2013-06-18 01:21:00,59.0,45.3,29.46,SSW,203,0.0,0.0,61,0.00,,,0.00,WUHU216HW,2013-06-18 09:21:00,
2013-06-18 01:27:00,58.8,45.7,29.46,SSW,203,0.0,0.0,62,0.00,,,0.00,WUHU216HW,2013-06-18 09:27:00,
2013-06-18 01:31:00,58.8,45.7,29.46,SSW,203,0.0,0.0,62,0.00,,,0.00,WUHU216HW,2013-06-18 09:31:00,
2013-06-18 01:36:00,58.6,45.2,29.46,SSW,203,0.0,0.0,61,0.00,,,0.00,WUHU216HW,2013-06-18 09:36:00,
2013-06-18 01:42:00,58.2,45.3,29.46,SSW,203,0.0,0.0,62,0.00,,,0.00,WUHU216HW,2013-06-18 09:42:00,
2013-06-18 01:47:00,57.9,45.3,29.46,SSW,203,0.0,0.0,63,0.00,,,0.00,WUHU216HW,2013-06-18 09:47:00,
2013-06-18 01:52:00,57.7,45.1,29.45,SSW,203,0.0,0.0,63,0.00,,,0.00,WUHU216HW,2013-06-18 09:52:00,
2013-06-18 01:57:00,57.5,45.0,29.46,SSW,203,0.0,0.0,63,0.00,,,0.00,WUHU216HW,2013-06-18 09:57:00,
2013-06-18 02:02:00,57.3,44.8,29.46,SSW,203,0.0,0.0,63,0.00,,,0.00,WUHU216HW,2013-06-18 10:02:00,
2013-06-18 02:06:00,57.3,44.9,29.46,SSW,203,0.0,0.0,64,0.00,,,0.00,WUHU216HW,2013-06-18 10:06:00,
2013-06-18 02:12:00,56.8,44.3,29.46,SSW,203,0.0,0.0,63,0.00,,,0.00,WUHU216HW,2013-06-18 10:12:00,
2013-06-18 02:17:00,56.4,44.0,29.46,SSW,203,0.0,0.0,63,0.00,,,0.00,WUHU216HW,2013-06-18 10:17:00,
2013-06-18 02:22:00,56.1,44.0,29.46,SSW,203,0.0,0.0,64,0.00,,,0.00,WUHU216HW,2013-06-18 10:22:00,
2013-06-18 02:27:00,55.9,43.8,29.46,SSW,203,0.0,0.0,64,0.00,,,0.00,WUHU216HW,2013-06-18 10:27:00,
2013-06-18 02:32:00,55.7,44.1,29.47,SSW,203,0.0,0.0,65,0.00,,,0.00,WUHU216HW,2013-06-18 10:32:00,
2013-06-18 02:37:00,55.4,44.2,29.47,ENE,68,0.0,0.0,66,0.00,,,0.00,WUHU216HW,2013-06-18 10:37:00,
2013-06-18 02:42:00,55.2,44.0,29.47,ENE,68,0.6,0.6,66,0.00,,,0.00,WUHU216HW,2013-06-18 10:42:00,
2013-06-18 02:47:00,55.2,44.0,29.47,NE,45,0.0,1.5,66,0.00,,,0.00,WUHU216HW,2013-06-18 10:47:00,
2013-06-18 02:52:00,55.2,44.4,29.47,ENE,68,0.0,1.5,67,0.00,,,0.00,WUHU216HW,2013-06-18 10:52:00,
2013-06-18 02:57:00,55.2,44.4,29.47,ENE,68,0.0,0.2,67,0.00,,,0.00,WUHU216HW,2013-06-18 10:57:00,
2013-06-18 03:02:00,55.2,44.8,29.47,ENE,68,0.0,0.0,68,0.00,,,0.00,WUHU216HW,2013-06-18 11:02:00,
2013-06-18 03:07:00,54.8,44.0,29.47,ENE,68,0.0,0.0,67,0.00,,,0.00,WUHU216HW,2013-06-18 11:07:00,
2013-06-18 03:12:00,54.6,43.9,29.47,ENE,68,0.0,0.0,67,0.00,,,0.00,WUHU216HW,2013-06-18 11:12:00,
2013-06-18 03:17:00,54.3,43.5,29.46,ENE,68,0.0,0.0,67,0.00,,,0.00,WUHU216HW,2013-06-18 11:17:00,
2013-06-18 03:22:00,54.1,43.7,29.46,ENE,68,0.0,0.0,68,0.00,,,0.00,WUHU216HW,2013-06-18 11:22:00,
2013-06-18 03:27:00,53.7,43.0,29.46,ENE,68,0.0,0.0,67,0.00,,,0.00,WUHU216HW,2013-06-18 11:27:00,
2013-06-18 03:32:00,53.4,43.0,29.46,ENE,68,0.0,0.0,68,0.00,,,0.00,WUHU216HW,2013-06-18 11:32:00,
2013-06-18 03:37:00,53.2,42.9,29.46,ENE,68,0.0,0.0,68,0.00,,,0.00,WUHU216HW,2013-06-18 11:37:00,
2013-06-18 03:42:00,52.8,42.1,29.46,ENE,68,0.0,0.0,67,0.00,,,0.00,WUHU216HW,2013-06-18 11:42:00,
2013-06-18 03:47:00,52.5,42.2,29.46,ENE,68,0.0,0.0,68,0.00,,,0.00,WUHU216HW,2013-06-18 11:47:00,
2013-06-18 03:52:00,52.3,42.5,29.46,ENE,68,0.0,0.0,69,0.00,,,0.00,WUHU216HW,2013-06-18 11:52:00,
2013-06-18 03:57:00,51.9,42.1,29.46,ENE,68,0.0,0.0,69,0.00,,,0.00,WUHU216HW,2013-06-18 11:57:00,
2013-06-18 04:02:00,51.8,42.0,29.46,ENE,68,0.0,0.0,69,0.00,,,0.00,WUHU216HW,2013-06-18 12:02:00,
2013-06-18 04:07:00,51.6,41.8,29.46,ENE,68,0.0,0.0,69,0.00,,,0.00,WUHU216HW,2013-06-18 12:07:00,
2013-06-18 04:12:00,51.4,42.0,29.46,ENE,68,0.0,0.0,70,0.00,,,0.00,WUHU216HW,2013-06-18 12:12:00,
2013-06-18 04:17:00,51.4,42.0,29.46,ENE,68,0.0,0.0,70,0.00,,,0.00,WUHU216HW,2013-06-18 12:17:00,
2013-06-18 04:22:00,51.4,42.4,29.46,ENE,68,0.0,0.0,71,0.00,,,0.00,WUHU216HW,2013-06-18 12:22:00,
2013-06-18 04:27:00,51.2,42.5,29.46,ENE,68,0.0,0.0,72,0.00,,,0.00,WUHU216HW,2013-06-18 12:27:00,
2013-06-18 04:32:00,51.0,42.4,29.45,ENE,68,0.0,0.0,72,0.00,,,0.00,WUHU216HW,2013-06-18 12:32:00,
2013-06-18 04:37:00,50.9,42.2,29.46,ENE,68,0.0,0.0,72,0.00,,,0.00,WUHU216HW,2013-06-18 12:37:00,
2013-06-18 04:42:00,50.9,42.2,29.46,ENE,68,0.0,0.0,72,0.00,,,0.00,WUHU216HW,2013-06-18 12:42:00,
2013-06-18 04:47:00,50.7,42.0,29.46,ENE,68,0.0,0.0,72,0.00,,,0.00,WUHU216HW,2013-06-18 12:47:00,
2013-06-18 04:52:00,50.5,41.8,29.46,ENE,68,0.0,0.0,72,0.00,,,0.00,WUHU216HW,2013-06-18 12:52:00,
2013-06-18 04:57:00,50.5,41.8,29.46,ENE,68,0.0,0.0,72,0.00,,,0.00,WUHU216HW,2013-06-18 12:57:00,
2013-06-18 05:02:00,50.5,41.8,29.46,ENE,68,0.0,0.0,72,0.00,,,0.00,WUHU216HW,2013-06-18 13:02:00,
2013-06-18 05:07:00,50.3,42.0,29.46,ENE,68,0.0,0.0,73,0.00,,,0.00,WUHU216HW,2013-06-18 13:07:00,
2013-06-18 05:12:00,50.3,41.6,29.46,ENE,68,0.0,0.0,72,0.00,,,0.00,WUHU216HW,2013-06-18 13:12:00,
2013-06-18 05:17:00,50.3,42.0,29.46,ENE,68,0.0,0.0,73,0.00,,,0.00,WUHU216HW,2013-06-18 13:17:00,
2013-06-18 05:22:00,50.5,42.5,29.46,ENE,68,0.0,0.0,74,0.00,,,0.00,WUHU216HW,2013-06-18 13:22:00,
2013-06-18 05:27:00,50.3,42.0,29.45,ENE,68,0.0,0.0,73,0.00,,,0.00,WUHU216HW,2013-06-18 13:27:00,
2013-06-18 05:32:00,50.3,42.3,29.45,ENE,68,0.0,0.0,74,0.00,,,0.00,WUHU216HW,2013-06-18 13:32:00,
2013-06-18 05:37:00,50.3,42.3,29.45,ENE,68,0.0,0.0,74,0.00,,,0.00,WUHU216HW,2013-06-18 13:37:00,
2013-06-18 05:42:00,50.3,42.0,29.45,ENE,68,0.0,0.0,73,0.00,,,0.00,WUHU216HW,2013-06-18 13:42:00,
2013-06-18 05:47:00,50.5,42.2,29.46,ENE,68,0.0,0.0,73,0.00,,,0.00,WUHU216HW,2013-06-18 13:47:00,
2013-06-18 05:52:00,50.7,42.3,29.46,ENE,68,0.0,0.0,73,0.00,,,0.00,WUHU216HW,2013-06-18 13:52:00,
2013-06-18 05:57:00,50.7,42.7,29.45,ENE,68,0.0,0.0,74,0.00,,,0.00,WUHU216HW,2013-06-18 13:57:00,
2013-06-18 06:02:00,50.7,42.7,29.45,ENE,68,0.0,0.0,74,0.00,,,0.00,WUHU216HW,2013-06-18 14:02:00,
2013-06-18 06:07:00,51.0,43.0,29.45,ENE,68,0.0,0.0,74,0.00,,,0.00,WUHU216HW,2013-06-18 14:07:00,
2013-06-18 06:12:00,51.0,43.0,29.45,ENE,68,0.0,0.0,74,0.00,,,0.00,WUHU216HW,2013-06-18 14:12:00,
2013-06-18 06:17:00,51.4,43.4,29.45,ENE,68,0.0,0.0,74,0.00,,,0.00,WUHU216HW,2013-06-18 14:17:00,
2013-06-18 06:22:00,51.6,43.6,29.45,ENE,68,0.0,0.0,74,0.00,,,0.00,WUHU216HW,2013-06-18 14:22:00,
2013-06-18 06:27:00,51.6,43.6,29.45,ENE,68,0.0,0.0,74,0.00,,,0.00,WUHU216HW,2013-06-18 14:27:00,
2013-06-18 06:32:00,53.7,45.6,29.45,ENE,68,0.0,0.0,74,0.00,,,0.00,WUHU216HW,2013-06-18 14:32:00,
2013-06-18 06:37:00,54.8,46.0,29.45,ENE,68,0.0,0.0,72,0.00,,,0.00,WUHU216HW,2013-06-18 14:37:00,
2013-06-18 06:42:00,54.5,45.6,29.45,ENE,68,0.0,0.0,72,0.00,,,0.00,WUHU216HW,2013-06-18 14:42:00,
2013-06-18 06:47:00,54.5,45.6,29.45,ENE,68,0.0,0.0,72,0.00,,,0.00,WUHU216HW,2013-06-18 14:47:00,
2013-06-18 06:52:00,56.1,47.5,29.45,ENE,68,0.0,0.0,73,0.00,,,0.00,WUHU216HW,2013-06-18 14:52:00,
2013-06-18 06:57:00,57.7,47.9,29.45,ENE,68,0.0,0.0,70,0.00,,,0.00,WUHU216HW,2013-06-18 14:57:00,
2013-06-18 07:02:00,59.3,48.8,29.45,ENE,68,0.0,0.0,68,0.00,,,0.00,WUHU216HW,2013-06-18 15:02:00,
2013-06-18 07:07:00,60.6,49.2,29.45,NE,45,0.0,0.0,66,0.00,,,0.00,WUHU216HW,2013-06-18 15:07:00,
2013-06-18 07:12:00,60.6,48.8,29.45,NE,45,0.0,0.0,64,0.00,,,0.00,WUHU216HW,2013-06-18 15:12:00,
2013-06-18 07:17:00,60.6,48.4,29.44,NE,45,0.0,0.0,64,0.00,,,0.00,WUHU216HW,2013-06-18 15:17:00,
2013-06-18 07:22:00,61.8,49.1,29.44,NE,45,0.0,0.0,63,0.00,,,0.00,WUHU216HW,2013-06-18 15:22:00,
2013-06-18 07:27:00,63.5,50.6,29.45,NNE,23,0.0,0.0,63,0.00,,,0.00,WUHU216HW,2013-06-18 15:27:00,
2013-06-18 07:32:00,66.7,52.4,29.44,NNE,23,0.0,0.0,60,0.00,,,0.00,WUHU216HW,2013-06-18 15:32:00,
2013-06-18 07:37:00,68.3,52.4,29.44,NE,45,0.0,0.0,57,0.00,,,0.00,WUHU216HW,2013-06-18 15:37:00,
2013-06-18 07:42:00,69.6,53.2,29.44,NNE,23,0.0,0.0,56,0.00,,,0.00,WUHU216HW,2013-06-18 15:42:00,
2013-06-18 07:47:00,69.2,52.3,29.44,NNE,23,0.0,0.0,55,0.00,,,0.00,WUHU216HW,2013-06-18 15:47:00,
2013-06-18 07:52:00,68.3,51.9,29.44,NNE,23,0.0,0.0,56,0.00,,,0.00,WUHU216HW,2013-06-18 15:52:00,
2013-06-18 07:57:00,67.2,51.8,29.44,NNE,23,0.0,0.0,57,0.00,,,0.00,WUHU216HW,2013-06-18 15:57:00,
2013-06-18 08:02:00,66.3,51.1,29.44,NNE,23,0.0,0.0,58,0.00,,,0.00,WUHU216HW,2013-06-18 16:02:00,
2013-06-18 08:07:00,65.6,50.9,29.43,NNE,23,0.0,0.0,59,0.00,,,0.00,WUHU216HW,2013-06-18 16:07:00,
2013-06-18 08:12:00,65.1,50.9,29.43,ESE,113,0.0,0.0,60,0.00,,,0.00,WUHU216HW,2013-06-18 16:12:00,
2013-06-18 08:17:00,64.9,51.1,29.43,ESE,113,0.0,0.0,61,0.00,,,0.00,WUHU216HW,2013-06-18 16:17:00,
2013-06-18 08:22:00,64.9,51.1,29.43,ESE,113,0.0,0.0,61,0.00,,,0.00,WUHU216HW,2013-06-18 16:22:00,
2013-06-18 08:27:00,65.1,52.0,29.43,ESE,113,0.0,0.0,62,0.00,,,0.00,WUHU216HW,2013-06-18 16:27:00,
2013-06-18 08:32:00,66.0,52.2,29.43,ESE,113,0.0,0.0,61,0.00,,,0.00,WUHU216HW,2013-06-18 16:32:00,
2013-06-18 08:37:00,66.5,52.7,29.43,ESE,113,0.0,2.2,61,0.00,,,0.00,WUHU216HW,2013-06-18 16:37:00,
2013-06-18 08:42:00,67.4,53.4,29.43,NW,315,1.7,2.2,60,0.00,,,0.00,WUHU216HW,2013-06-18 16:42:00,
2013-06-18 08:47:00,68.0,53.6,29.43,WNW,293,0.0,1.7,60,0.00,,,0.00,WUHU216HW,2013-06-18 16:47:00,
2013-06-18 08:52:00,68.1,53.2,29.43,NW,315,0.0,2.2,59,0.00,,,0.00,WUHU216HW,2013-06-18 16:52:00,
2013-06-18 08:57:00,68.3,53.4,29.43,NW,315,1.1,2.6,59,0.00,,,0.00,WUHU216HW,2013-06-18 16:57:00,
2013-06-18 09:02:00,68.9,53.9,29.43,NW,315,0.0,2.6,59,0.00,,,0.00,WUHU216HW,2013-06-18 17:02:00,
2013-06-18 09:07:00,69.4,54.0,29.43,WNW,293,0.0,1.1,58,0.00,,,0.00,WUHU216HW,2013-06-18 17:07:00,
2013-06-18 09:12:00,70.1,54.0,29.43,WNW,293,0.0,1.1,57,0.00,,,0.00,WUHU216HW,2013-06-18 17:12:00,
2013-06-18 09:17:00,70.5,54.5,29.43,NW,315,0.0,0.0,57,0.00,,,0.00,WUHU216HW,2013-06-18 17:17:00,
2013-06-18 09:22:00,70.8,54.3,29.43,NW,315,0.0,0.0,56,0.00,,,0.00,WUHU216HW,2013-06-18 17:22:00,
2013-06-18 09:27:00,71.7,54.6,29.42,NW,315,1.3,2.2,55,0.00,,,0.00,WUHU216HW,2013-06-18 17:27:00,
2013-06-18 09:32:00,72.3,55.1,29.42,WNW,293,1.7,2.2,55,0.00,,,0.00,WUHU216HW,2013-06-18 17:32:00,
2013-06-18 09:37:00,73.2,55.4,29.42,NNW,338,0.0,1.7,54,0.00,,,0.00,WUHU216HW,2013-06-18 17:37:00,
2013-06-18 09:42:00,75.3,56.5,29.42,NW,315,3.3,3.3,52,0.00,,,0.00,WUHU216HW,2013-06-18 17:42:00,
2013-06-18 09:47:00,77.5,57.5,29.42,WNW,293,1.1,3.3,50,0.00,,,0.00,WUHU216HW,2013-06-18 17:47:00,
2013-06-18 09:52:00,78.6,57.2,29.42,WNW,293,0.0,3.5,48,0.00,,,0.00,WUHU216HW,2013-06-18 17:52:00,
2013-06-18 09:57:00,78.4,57.2,29.42,NW,315,6.2,6.2,48,0.00,,,0.00,WUHU216HW,2013-06-18 17:57:00,
2013-06-18 10:02:00,77.7,57.0,29.42,NW,315,7.1,7.1,49,0.00,,,0.00,WUHU216HW,2013-06-18 18:02:00,
2013-06-18 10:07:00,78.0,57.3,29.41,NW,315,2.9,7.1,49,0.00,,,0.00,WUHU216HW,2013-06-18 18:07:00,
2013-06-18 10:12:00,81.1,58.9,29.42,NW,315,4.4,7.1,47,0.00,,,0.00,WUHU216HW,2013-06-18 18:12:00,
2013-06-18 10:17:00,87.9,61.3,29.41,WNW,293,0.0,4.4,41,0.00,,,0.00,WUHU216HW,2013-06-18 18:17:00,
2013-06-18 10:22:00,91.7,62.4,29.42,WNW,293,0.0,4.4,38,0.00,,,0.00,WUHU216HW,2013-06-18 18:22:00,
2013-06-18 10:27:00,94.6,62.6,29.41,West,270,0.0,1.5,34,0.00,,,0.00,WUHU216HW,2013-06-18 18:27:00,
2013-06-18 10:32:00,97.5,63.3,29.41,WNW,293,0.0,1.5,33,0.00,,,0.00,WUHU216HW,2013-06-18 18:32:00,
2013-06-18 10:37:00,99.1,63.1,29.42,West,270,0.0,1.1,31,0.00,,,0.00,WUHU216HW,2013-06-18 18:37:00,
2013-06-18 10:42:00,100.5,63.3,29.41,WNW,293,4.0,6.7,30,0.00,,,0.00,WUHU216HW,2013-06-18 18:42:00,
2013-06-18 10:47:00,100.7,63.7,29.41,North,0,0.0,6.7,30,0.00,,,0.00,WUHU216HW,2013-06-18 18:47:00,
2013-06-18 10:52:00,100.0,62.0,29.41,NW,315,6.4,6.4,29,0.00,,,0.00,WUHU216HW,2013-06-18 18:52:00,
2013-06-18 10:57:00,98.7,60.9,29.41,WSW,248,0.0,6.4,29,0.00,,,0.00,WUHU216HW,2013-06-18 18:57:00,
2013-06-18 11:02:00,99.3,61.3,29.41,WNW,293,3.3,3.3,29,0.00,,,0.00,WUHU216HW,2013-06-18 19:02:00,
2013-06-18 11:07:00,100.0,62.0,29.40,WNW,293,0.0,4.9,29,0.00,,,0.00,WUHU216HW,2013-06-18 19:07:00,
2013-06-18 11:12:00,99.1,60.1,29.40,SW,225,0.6,4.9,28,0.00,,,0.00,WUHU216HW,2013-06-18 19:12:00,
2013-06-18 11:17:00,96.4,58.8,29.40,West,270,0.0,0.6,29,0.00,,,0.00,WUHU216HW,2013-06-18 19:17:00,
2013-06-18 11:22:00,93.7,57.6,29.40,WSW,248,0.0,5.1,30,0.00,,,0.00,WUHU216HW,2013-06-18 19:22:00,
2013-06-18 11:27:00,90.1,56.2,29.40,SW,225,3.5,5.1,32,0.00,,,0.00,WUHU216HW,2013-06-18 19:27:00,
2013-06-18 11:32:00,89.4,56.3,29.40,WNW,293,7.8,7.8,33,0.00,,,0.00,WUHU216HW,2013-06-18 19:32:00,
2013-06-18 11:37:00,89.2,56.1,29.40,WNW,293,4.4,7.8,33,0.00,,,0.00,WUHU216HW,2013-06-18 19:37:00,
2013-06-18 11:42:00,88.1,56.0,29.40,WNW,293,4.0,7.8,34,0.00,,,0.00,WUHU216HW,2013-06-18 19:42:00,
2013-06-18 11:47:00,86.5,54.6,29.41,WNW,293,5.8,5.8,34,0.00,,,0.00,WUHU216HW,2013-06-18 19:47:00,
2013-06-18 11:52:00,85.1,54.2,29.40,WNW,293,2.6,5.8,35,0.00,,,0.00,WUHU216HW,2013-06-18 19:52:00,
2013-06-18 11:57:00,84.0,54.8,29.40,WNW,293,5.5,5.8,37,0.00,,,0.00,WUHU216HW,2013-06-18 19:57:00,
2013-06-18 12:02:00,84.3,55.1,29.40,West,270,4.0,8.2,37,0.00,,,0.00,WUHU216HW,2013-06-18 20:02:00,
2013-06-18 12:07:00,86.7,57.2,29.40,WNW,293,12.0,12.0,37,0.00,,,0.00,WUHU216HW,2013-06-18 20:07:00,
2013-06-18 12:12:00,90.8,58.4,29.40,SW,225,1.1,12.0,34,0.00,,,0.00,WUHU216HW,2013-06-18 20:12:00,
2013-06-18 12:17:00,92.8,59.3,29.40,WNW,293,7.3,7.3,33,0.00,,,0.00,WUHU216HW,2013-06-18 20:17:00,
2013-06-18 12:22:00,94.1,59.6,29.41,WNW,293,6.2,7.3,32,0.00,,,0.00,WUHU216HW,2013-06-18 20:22:00,
2013-06-18 12:27:00,95.1,59.7,29.41,SSW,203,0.2,7.3,31,0.00,,,0.00,WUHU216HW,2013-06-18 20:27:00,
2013-06-18 12:32:00,95.9,60.3,29.41,WNW,293,6.4,6.4,31,0.00,,,0.00,WUHU216HW,2013-06-18 20:32:00,
2013-06-18 12:37:00,96.0,59.6,29.41,West,270,0.8,6.4,30,0.00,,,0.00,WUHU216HW,2013-06-18 20:37:00,
2013-06-18 12:42:00,95.9,59.5,29.41,West,270,0.8,6.4,30,0.00,,,0.00,WUHU216HW,2013-06-18 20:42:00,
2013-06-18 12:47:00,96.0,59.6,29.41,West,270,3.8,4.2,30,0.00,,,0.00,WUHU216HW,2013-06-18 20:47:00,
2013-06-18 12:52:00,95.7,59.3,29.40,WSW,248,0.0,6.2,30,0.00,,,0.00,WUHU216HW,2013-06-18 20:52:00,
2013-06-18 12:57:00,95.3,59.1,29.41,NW,315,2.9,6.7,30,0.00,,,0.00,WUHU216HW,2013-06-18 20:57:00,
2013-06-18 13:02:00,95.0,58.8,29.41,West,270,6.9,6.9,30,0.00,,,0.00,WUHU216HW,2013-06-18 21:02:00,
2013-06-18 13:07:00,94.8,58.6,29.41,WNW,293,6.0,6.9,30,0.00,,,0.00,WUHU216HW,2013-06-18 21:07:00,
2013-06-18 13:12:00,94.2,58.1,29.41,West,270,4.6,8.0,30,0.00,,,0.00,WUHU216HW,2013-06-18 21:12:00,
2013-06-18 13:17:00,93.9,57.8,29.41,West,270,1.5,8.0,30,0.00,,,0.00,WUHU216HW,2013-06-18 21:17:00,
2013-06-18 13:22:00,93.9,57.8,29.41,WNW,293,3.8,4.6,30,0.00,,,0.00,WUHU216HW,2013-06-18 21:22:00,
2013-06-18 13:27:00,93.9,57.8,29.41,West,270,2.0,8.0,30,0.00,,,0.00,WUHU216HW,2013-06-18 21:27:00,
2013-06-18 13:32:00,93.9,58.6,29.41,NW,315,6.7,8.0,31,0.00,,,0.00,WUHU216HW,2013-06-18 21:32:00,
2013-06-18 13:37:00,93.9,58.6,29.41,West,270,1.3,6.7,31,0.00,,,0.00,WUHU216HW,2013-06-18 21:37:00,
2013-06-18 13:43:00,93.9,57.8,29.41,WNW,293,2.0,7.8,30,0.00,,,0.00,WUHU216HW,2013-06-18 21:43:00,
2013-06-18 13:48:00,93.7,58.4,29.42,WNW,293,4.0,7.8,31,0.00,,,0.00,WUHU216HW,2013-06-18 21:48:00,
2013-06-18 13:53:00,93.7,58.4,29.42,WNW,293,2.4,4.0,31,0.00,,,0.00,WUHU216HW,2013-06-18 21:53:00,
2013-06-18 13:58:00,94.2,58.9,29.42,WNW,293,3.5,4.0,31,0.00,,,0.00,WUHU216HW,2013-06-18 21:58:00,
2013-06-18 14:03:00,94.2,58.9,29.41,WNW,293,0.0,3.5,31,0.00,,,0.00,WUHU216HW,2013-06-18 22:03:00,
2013-06-18 14:08:00,94.2,58.9,29.41,WNW,293,3.8,4.6,31,0.00,,,0.00,WUHU216HW,2013-06-18 22:08:00,
2013-06-18 14:13:00,94.1,58.8,29.41,NW,315,6.9,6.9,31,0.00,,,0.00,WUHU216HW,2013-06-18 22:13:00,
2013-06-18 14:18:00,93.7,57.6,29.41,WNW,293,7.8,7.8,30,0.00,,,0.00,WUHU216HW,2013-06-18 22:18:00,
2013-06-18 14:23:00,93.7,58.4,29.41,West,270,2.2,8.2,31,0.00,,,0.00,WUHU216HW,2013-06-18 22:23:00,
2013-06-18 14:28:00,93.7,58.4,29.41,WNW,293,1.5,8.2,31,0.00,,,0.00,WUHU216HW,2013-06-18 22:28:00,
2013-06-18 14:33:00,93.5,58.3,29.41,WSW,248,0.0,10.5,31,0.00,,,0.00,WUHU216HW,2013-06-18 22:33:00,
2013-06-18 14:38:00,93.9,58.6,29.40,WNW,293,5.3,10.5,31,0.00,,,0.00,WUHU216HW,2013-06-18 22:38:00,
2013-06-18 14:43:00,94.1,58.8,29.40,West,270,1.3,11.6,31,0.00,,,0.00,WUHU216HW,2013-06-18 22:43:00,
2013-06-18 14:48:00,94.8,59.4,29.41,West,270,5.1,11.6,31,0.00,,,0.00,WUHU216HW,2013-06-18 22:48:00,
2013-06-18 14:53:00,95.0,58.8,29.40,WSW,248,2.6,5.1,30,0.00,,,0.00,WUHU216HW,2013-06-18 22:53:00,
2013-06-18 14:58:00,95.3,59.1,29.41,WNW,293,3.8,5.1,30,0.00,,,0.00,WUHU216HW,2013-06-18 22:58:00,
2013-06-18 15:03:00,95.7,59.3,29.41,WSW,248,0.0,3.8,30,0.00,,,0.00,WUHU216HW,2013-06-18 23:03:00,
2013-06-18 15:08:00,95.7,59.3,29.40,West,270,1.5,3.8,30,0.00,,,0.00,WUHU216HW,2013-06-18 23:08:00,
2013-06-18 15:13:00,95.7,59.3,29.40,SW,225,5.1,5.1,30,0.00,,,0.00,WUHU216HW,2013-06-18 23:13:00,
2013-06-18 15:18:00,95.3,59.1,29.40,West,270,8.2,8.2,30,0.00,,,0.00,WUHU216HW,2013-06-18 23:18:00,
2013-06-18 15:23:00,94.6,58.4,29.40,NW,315,7.1,8.2,30,0.00,,,0.00,WUHU216HW,2013-06-18 23:23:00,
2013-06-18 15:28:00,93.5,58.3,29.40,WNW,293,3.5,7.8,31,0.00,,,0.00,WUHU216HW,2013-06-18 23:28:00,
2013-06-18 15:33:00,92.8,57.7,29.40,WNW,293,0.8,7.8,31,0.00,,,0.00,WUHU216HW,2013-06-18 23:33:00,
2013-06-18 15:38:00,91.9,57.7,29.40,NW,315,3.8,6.7,32,0.00,,,0.00,WUHU216HW,2013-06-18 23:38:00,
2013-06-18 15:43:00,91.9,57.7,29.40,WSW,248,6.7,6.7,32,0.00,,,0.00,WUHU216HW,2013-06-18 23:43:00,
2013-06-18 15:48:00,91.7,57.6,29.41,West,270,2.4,8.7,32,0.00,,,0.00,WUHU216HW,2013-06-18 23:48:00,
2013-06-18 15:53:00,91.0,57.0,29.41,SW,225,4.2,8.7,32,0.00,,,0.00,WUHU216HW,2013-06-18 23:53:00,
2013-06-18 15:58:00,90.5,56.5,29.40,SW,225,6.0,6.0,32,0.00,,,0.00,WUHU216HW,2013-06-18 23:58:00,
2013-06-18 16:03:00,90.8,56.2,29.41,West,270,0.0,7.3,31,0.00,,,0.00,WUHU216HW,2013-06-19 00:03:00,
2013-06-18 16:08:00,89.9,55.2,29.41,WSW,248,0.0,7.3,31,0.00,,,0.00,WUHU216HW,2013-06-19 00:08:00,
2013-06-18 16:13:00,88.8,54.2,29.41,SW,225,4.0,4.0,31,0.00,,,0.00,WUHU216HW,2013-06-19 00:13:00,
2013-06-18 16:18:00,89.0,53.6,29.41,West,270,0.0,7.3,30,0.00,,,0.00,WUHU216HW,2013-06-19 00:18:00,
2013-06-18 16:23:00,89.2,52.7,29.41,WSW,248,6.2,8.5,29,0.00,,,0.00,WUHU216HW,2013-06-19 00:23:00,
2013-06-18 16:28:00,88.8,51.3,29.41,WNW,293,4.4,8.5,28,0.00,,,0.00,WUHU216HW,2013-06-19 00:28:00,
2013-06-18 16:33:00,87.6,50.8,29.41,SW,225,5.3,6.2,28,0.00,,,0.00,WUHU216HW,2013-06-19 00:33:00,
2013-06-18 16:38:00,86.0,50.0,29.41,SSW,203,4.6,5.3,29,0.00,,,0.00,WUHU216HW,2013-06-19 00:38:00,
2013-06-18 16:43:00,84.7,49.9,29.41,WNW,293,4.6,5.3,30,0.00,,,0.00,WUHU216HW,2013-06-19 00:43:00,
2013-06-18 16:48:00,83.6,49.2,29.41,WNW,293,1.5,10.9,30,0.00,,,0.00,WUHU216HW,2013-06-19 00:48:00,
2013-06-18 16:53:00,83.1,49.2,29.41,NE,45,0.0,10.9,31,0.00,,,0.00,WUHU216HW,2013-06-19 00:53:00,
2013-06-18 16:58:00,82.7,49.7,29.42,WNW,293,0.0,1.5,32,0.00,,,0.00,WUHU216HW,2013-06-19 00:58:00,
2013-06-18 17:03:00,82.7,49.7,29.42,SSE,158,0.0,3.1,32,0.00,,,0.00,WUHU216HW,2013-06-19 01:03:00,
2013-06-18 17:08:00,82.5,48.7,29.42,East,90,4.4,4.4,31,0.00,,,0.00,WUHU216HW,2013-06-19 01:08:00,
2013-06-18 17:13:00,82.2,48.4,29.42,SE,135,6.7,6.7,31,0.00,,,0.00,WUHU216HW,2013-06-19 01:13:00,
2013-06-18 17:18:00,82.0,48.3,29.42,SE,135,2.0,6.7,31,0.00,,,0.00,WUHU216HW,2013-06-19 01:18:00,
2013-06-18 17:23:00,82.2,48.4,29.42,ENE,68,9.3,9.3,31,0.00,,,0.00,WUHU216HW,2013-06-19 01:23:00,
2013-06-18 17:28:00,82.0,47.5,29.43,NE,45,5.8,9.3,30,0.00,,,0.00,WUHU216HW,2013-06-19 01:28:00,
2013-06-18 17:33:00,81.6,48.0,29.42,East,90,3.3,9.3,31,0.00,,,0.00,WUHU216HW,2013-06-19 01:33:00,
2013-06-18 17:38:00,81.5,47.8,29.43,WNW,293,0.8,5.3,31,0.00,,,0.00,WUHU216HW,2013-06-19 01:38:00,
2013-06-18 17:43:00,81.5,50.2,29.43,SW,225,0.0,5.3,34,0.00,,,0.00,WUHU216HW,2013-06-19 01:43:00,
2013-06-18 17:48:00,81.1,50.4,29.44,WNW,293,3.5,5.3,33,0.00,,,0.00,WUHU216HW,2013-06-19 01:48:00,
2013-06-18 17:53:00,80.4,50.8,29.43,WNW,293,3.1,5.1,36,0.00,,,0.00,WUHU216HW,2013-06-19 01:53:00,
2013-06-18 17:58:00,79.7,51.0,29.44,West,270,0.0,3.5,37,0.00,,,0.00,WUHU216HW,2013-06-19 01:58:00,
2013-06-18 18:03:00,78.8,50.9,29.43,WSW,248,5.5,5.5,38,0.00,,,0.00,WUHU216HW,2013-06-19 02:03:00,
2013-06-18 18:08:00,78.4,51.4,29.43,West,270,2.6,5.5,39,0.00,,,0.00,WUHU216HW,2013-06-19 02:08:00,
2013-06-18 18:13:00,77.7,50.7,29.44,West,270,3.8,5.5,39,0.00,,,0.00,WUHU216HW,2013-06-19 02:13:00,
2013-06-18 18:18:00,76.8,51.3,29.44,West,270,0.6,5.1,40,0.00,,,0.00,WUHU216HW,2013-06-19 02:18:00,
2013-06-18 18:23:00,76.4,51.0,29.44,South,180,3.5,5.1,41,0.00,,,0.00,WUHU216HW,2013-06-19 02:23:00,
2013-06-18 18:28:00,76.2,50.8,29.44,West,270,4.9,4.9,41,0.00,,,0.00,WUHU216HW,2013-06-19 02:28:00,
2013-06-18 18:33:00,75.9,51.1,29.44,NW,315,0.8,4.9,42,0.00,,,0.00,WUHU216HW,2013-06-19 02:33:00,
2013-06-18 18:38:00,75.9,51.1,29.44,WSW,248,3.5,5.1,42,0.00,,,0.00,WUHU216HW,2013-06-19 02:38:00,
2013-06-18 18:43:00,75.7,50.9,29.45,West,270,6.2,6.2,42,0.00,,,0.00,WUHU216HW,2013-06-19 02:43:00,
2013-06-18 18:48:00,75.3,50.6,29.45,West,270,4.0,8.2,42,0.00,,,0.00,WUHU216HW,2013-06-19 02:48:00,
2013-06-18 18:53:00,75.2,51.1,29.45,WSW,248,0.0,8.2,43,0.00,,,0.00,WUHU216HW,2013-06-19 02:53:00,
2013-06-18 18:58:00,75.0,50.9,29.45,WSW,248,0.8,4.0,43,0.00,,,0.00,WUHU216HW,2013-06-19 02:58:00,
2013-06-18 19:03:00,75.3,50.0,29.45,WSW,248,5.3,5.3,41,0.00,,,0.00,WUHU216HW,2013-06-19 03:03:00,
2013-06-18 19:08:00,75.3,50.0,29.45,WSW,248,2.0,5.3,41,0.00,,,0.00,WUHU216HW,2013-06-19 03:08:00,
2013-06-18 19:13:00,75.3,50.0,29.45,WSW,248,1.1,5.3,41,0.00,,,0.00,WUHU216HW,2013-06-19 03:13:00,
2013-06-18 19:18:00,75.3,49.4,29.45,WSW,248,0.4,2.0,40,0.00,,,0.00,WUHU216HW,2013-06-19 03:18:00,
2013-06-18 19:23:00,75.3,47.9,29.45,West,270,2.0,7.3,38,0.00,,,0.00,WUHU216HW,2013-06-19 03:23:00,
2013-06-18 19:28:00,75.3,47.9,29.45,WSW,248,0.6,7.3,38,0.00,,,0.00,WUHU216HW,2013-06-19 03:28:00,
2013-06-18 19:33:00,75.0,46.8,29.45,WSW,248,0.8,4.0,37,0.00,,,0.00,WUHU216HW,2013-06-19 03:33:00,
2013-06-18 19:38:00,75.0,47.6,29.45,WSW,248,2.0,4.0,38,0.00,,,0.00,WUHU216HW,2013-06-19 03:38:00,
2013-06-18 19:43:00,74.8,46.6,29.45,WSW,248,0.8,4.0,37,0.00,,,0.00,WUHU216HW,2013-06-19 03:43:00,
2013-06-18 19:48:00,74.8,46.6,29.45,West,270,0.0,2.0,37,0.00,,,0.00,WUHU216HW,2013-06-19 03:48:00,
2013-06-18 19:53:00,74.8,46.6,29.45,WSW,248,0.4,1.5,37,0.00,,,0.00,WUHU216HW,2013-06-19 03:53:00,
2013-06-18 19:58:00,74.4,46.3,29.44,WSW,248,0.8,3.5,37,0.00,,,0.00,WUHU216HW,2013-06-19 03:58:00,
2013-06-18 20:01:00,74.4,46.3,29.44,West,270,5.8,5.8,37,0.00,,,0.00,WUHU216HW,2013-06-19 04:01:00,
2013-06-18 20:02:00,74.4,46.3,29.45,WSW,248,1.3,5.8,37,0.00,,,0.00,WUHU216HW,2013-06-19 04:02:00,
2013-06-18 20:07:00,74.3,46.2,29.45,WSW,248,0.0,5.8,37,0.00,,,0.00,WUHU216HW,2013-06-19 04:07:00,
2013-06-18 20:12:00,74.1,46.0,29.45,WSW,248,2.2,2.2,37,0.00,,,0.00,WUHU216HW,2013-06-19 04:12:00,
2013-06-18 20:17:00,73.9,45.8,29.45,WSW,248,6.0,6.0,37,0.00,,,0.00,WUHU216HW,2013-06-19 04:17:00,
2013-06-18 20:22:00,73.4,45.7,29.45,WSW,248,0.8,8.2,37,0.00,,,0.00,WUHU216HW,2013-06-19 04:22:00,
2013-06-18 20:27:00,73.2,45.2,29.45,West,270,5.3,8.2,37,0.00,,,0.00,WUHU216HW,2013-06-19 04:27:00,
2013-06-18 20:32:00,73.0,45.0,29.45,WNW,293,0.0,5.3,37,0.00,,,0.00,WUHU216HW,2013-06-19 04:32:00,
2013-06-18 20:37:00,72.6,44.7,29.45,WSW,248,3.8,5.3,37,0.00,,,0.00,WUHU216HW,2013-06-19 04:37:00,
2013-06-18 20:42:00,72.3,45.1,29.45,WSW,248,0.0,3.8,38,0.00,,,0.00,WUHU216HW,2013-06-19 04:42:00,
2013-06-18 20:47:00,72.1,45.0,29.46,WSW,248,4.4,5.5,38,0.00,,,0.00,WUHU216HW,2013-06-19 04:47:00,
2013-06-18 20:52:00,71.7,45.4,29.46,WSW,248,5.5,5.5,39,0.00,,,0.00,WUHU216HW,2013-06-19 04:52:00,
2013-06-18 20:57:00,71.6,46.0,29.47,SSW,203,1.3,5.5,40,0.00,,,0.00,WUHU216HW,2013-06-19 04:57:00,
2013-06-18 21:02:00,71.4,45.8,29.47,SW,225,0.0,5.5,40,0.00,,,0.00,WUHU216HW,2013-06-19 05:02:00,
2013-06-18 21:07:00,71.4,46.4,29.48,ENE,68,1.1,2.9,41,0.00,,,0.00,WUHU216HW,2013-06-19 05:07:00,
2013-06-18 21:12:00,71.2,45.7,29.48,SE,135,1.3,2.9,40,0.00,,,0.00,WUHU216HW,2013-06-19 05:12:00,
2013-06-18 21:17:00,71.2,44.9,29.48,SE,135,0.0,1.3,39,0.00,,,0.00,WUHU216HW,2013-06-19 05:17:00,
2013-06-18 21:22:00,71.2,44.9,29.49,SE,135,0.0,1.3,39,0.00,,,0.00,WUHU216HW,2013-06-19 05:22:00,
2013-06-18 21:27:00,71.2,44.9,29.49,SSE,158,1.3,1.3,39,0.00,,,0.00,WUHU216HW,2013-06-19 05:27:00,
2013-06-18 21:32:00,70.8,45.3,29.49,SSE,158,0.0,1.3,40,0.00,,,0.00,WUHU216HW,2013-06-19 05:32:00,
2013-06-18 21:37:00,70.8,45.3,29.49,NE,45,3.3,3.3,40,0.00,,,0.00,WUHU216HW,2013-06-19 05:37:00,
2013-06-18 21:42:00,70.8,45.3,29.49,ESE,113,3.5,3.5,40,0.00,,,0.00,WUHU216HW,2013-06-19 05:42:00,
2013-06-18 21:47:00,70.5,45.0,29.49,SW,225,0.0,3.5,40,0.00,,,0.00,WUHU216HW,2013-06-19 05:47:00,
2013-06-18 21:52:00,69.8,44.4,29.49,SSE,158,0.6,3.5,40,0.00,,,0.00,WUHU216HW,2013-06-19 05:52:00,
2013-06-18 21:57:00,69.6,44.8,29.49,NNE,23,0.0,0.6,41,0.00,,,0.00,WUHU216HW,2013-06-19 05:57:00,
2013-06-18 22:02:00,69.6,44.8,29.49,East,90,0.0,1.7,41,0.00,,,0.00,WUHU216HW,2013-06-19 06:02:00,
2013-06-18 22:07:00,69.0,44.5,29.49,SSE,158,0.0,1.7,41,0.00,,,0.00,WUHU216HW,2013-06-19 06:07:00,
2013-06-18 22:12:00,68.9,44.2,29.50,SSE,158,0.8,0.8,41,0.00,,,0.00,WUHU216HW,2013-06-19 06:12:00,
2013-06-18 22:17:00,68.5,44.4,29.49,SSE,158,1.1,1.1,42,0.00,,,0.00,WUHU216HW,2013-06-19 06:17:00,
2013-06-18 22:22:00,68.0,44.5,29.50,SW,225,1.7,1.7,43,0.00,,,0.00,WUHU216HW,2013-06-19 06:22:00,
2013-06-18 22:27:00,67.8,44.4,29.50,WNW,293,0.0,1.7,43,0.00,,,0.00,WUHU216HW,2013-06-19 06:27:00,
2013-06-18 22:32:00,67.6,44.2,29.50,NW,315,3.1,3.1,43,0.00,,,0.00,WUHU216HW,2013-06-19 06:32:00,
2013-06-18 22:37:00,67.2,43.9,29.50,NW,315,0.0,3.1,43,0.00,,,0.00,WUHU216HW,2013-06-19 06:37:00,
2013-06-18 22:42:00,66.7,43.4,29.50,NW,315,0.0,0.0,43,0.00,,,0.00,WUHU216HW,2013-06-19 06:42:00,
2013-06-18 22:47:00,66.2,43.5,29.51,NW,315,0.0,0.0,44,0.00,,,0.00,WUHU216HW,2013-06-19 06:47:00,
2013-06-18 22:52:00,65.4,44.0,29.51,NW,315,0.0,0.0,46,0.00,,,0.00,WUHU216HW,2013-06-19 06:52:00,
2013-06-18 22:57:00,65.3,43.8,29.52,NW,315,0.0,0.0,46,0.00,,,0.00,WUHU216HW,2013-06-19 06:57:00,
2013-06-18 23:02:00,64.9,43.5,29.52,NW,315,0.0,0.0,46,0.00,,,0.00,WUHU216HW,2013-06-19 07:02:00,
2013-06-18 23:07:00,64.2,43.4,29.52,NW,315,0.0,0.0,47,0.00,,,0.00,WUHU216HW,2013-06-19 07:07:00,
2013-06-18 23:12:00,64.0,43.2,29.52,ENE,68,0.0,0.0,47,0.00,,,0.00,WUHU216HW,2013-06-19 07:12:00,
2013-06-18 23:17:00,63.6,42.9,29.52,NNE,23,0.0,0.0,47,0.00,,,0.00,WUHU216HW,2013-06-19 07:17:00,
2013-06-18 23:22:00,63.1,42.4,29.52,ENE,68,0.0,1.1,47,0.00,,,0.00,WUHU216HW,2013-06-19 07:22:00,
2013-06-18 23:27:00,62.7,42.1,29.52,ENE,68,0.0,1.1,47,0.00,,,0.00,WUHU216HW,2013-06-19 07:27:00,
2013-06-18 23:32:00,62.6,42.5,29.52,ESE,113,0.0,0.0,48,0.00,,,0.00,WUHU216HW,2013-06-19 07:32:00,
2013-06-18 23:37:00,61.8,42.4,29.53,South,180,0.6,1.7,49,0.00,,,0.00,WUHU216HW,2013-06-19 07:37:00,
2013-06-18 23:42:00,61.5,42.7,29.53,SE,135,4.2,4.2,50,0.00,,,0.00,WUHU216HW,2013-06-19 07:42:00,
2013-06-18 23:47:00,60.9,42.2,29.54,South,180,0.0,4.2,50,0.00,,,0.00,WUHU216HW,2013-06-19 07:47:00,
2013-06-18 23:52:00,60.6,42.3,29.53,SSW,203,0.6,7.1,51,0.00,,,0.00,WUHU216HW,2013-06-19 07:52:00,
2013-06-18 23:57:00,60.4,41.7,29.53,South,180,0.0,7.1,50,0.00,,,0.00,WUHU216HW,2013-06-19 07:57:00,